Time;durP1;ratioP1;P1;durP2;ratioP2;P2;SDS_P1;SDS_P2;PMS_P1;PMS_P2;Temp;Humidity;BMP_temperature;BMP_pressure;BME280_temperature;BME280_humidity;BME280_pressure;Samples;Min_cycle;Max_cycle;Signal;HPM_P1;HPM_P2
2021/04/11 00:00:22;;;;;;;9.63;7.35;;;;;;;1.72;100.00;100889.47;3592551;39;20048;-61
2021/04/11 00:02:48;;;;;;;12.27;7.72;;;;;;;1.81;100.00;100887.25;3595418;39;20056;-62
2021/04/11 00:05:18;;;;;;;11.05;7.43;;;;;;;1.73;100.00;100895.63;3593909;39;20055;-62
2021/04/11 00:07:44;;;;;;;;;;;;;;;1.77;100.00;100891.88;3594940;39;20048;-62
2021/04/11 00:10:16;;;;;;;10.27;6.82;;;;;;;1.79;100.00;100884.69;3591634;39;19932;-62
2021/04/11 00:12:42;;;;;;;10.25;7.25;;;;;;;1.87;100.00;100877.19;3594716;39;20051;-62
2021/04/11 00:15:11;;;;;;;13.15;7.45;;;;;;;1.87;100.00;100886.94;3592521;39;20056;-62
2021/04/11 00:17:37;;;;;;;12.32;7.45;;;;;;;1.90;100.00;100884.16;3594214;39;20032;-62
2021/04/11 00:20:04;;;;;;;10.70;7.03;;;;;;;1.88;100.00;100888.66;3592179;39;20055;-62
2021/04/11 00:22:30;;;;;;;10.60;7.13;;;;;;;1.91;100.00;100883.19;3594811;39;20304;-62
2021/04/11 00:24:56;;;;;;;10.10;7.55;;;;;;;1.92;100.00;100874.31;3593151;39;20048;-62
2021/04/11 00:27:22;;;;;;;12.40;6.85;;;;;;;1.90;100.00;100881.50;3594980;39;20271;-62
2021/04/11 00:29:48;;;;;;;9.82;6.75;;;;;;;1.98;100.00;100887.25;3592502;39;20048;-62
2021/04/11 00:32:14;;;;;;;11.63;7.32;;;;;;;2.01;100.00;100876.47;3593699;39;20048;-62
2021/04/11 00:34:40;;;;;;;9.35;6.43;;;;;;;2.06;100.00;100877.09;3593959;39;20326;-61
2021/04/11 00:37:07;;;;;;;8.52;6.28;;;;;;;2.06;100.00;100871.78;3593211;39;20048;-62
2021/04/11 00:39:34;;;;;;;8.90;6.22;;;;;;;2.13;100.00;100863.50;3590206;39;20137;-62
2021/04/11 00:42:06;;;;;;;8.95;6.35;;;;;;;2.15;100.00;100859.81;3595687;39;20328;-62
2021/04/11 00:44:33;;;;;;;8.77;6.18;;;;;;;2.14;100.00;100862.56;3592347;39;20133;-64
2021/04/11 00:47:02;;;;;;;7.40;5.30;;;;;;;2.16;100.00;100858.00;3592520;39;20040;-64
2021/04/11 00:49:34;;;;;;;8.98;5.53;;;;;;;2.15;100.00;100856.28;3593625;39;20044;-61
2021/04/11 00:52:07;;;;;;;11.38;6.40;;;;;;;2.08;100.00;100848.66;3593572;39;20044;-61
2021/04/11 00:54:35;;;;;;;9.40;5.32;;;;;;;2.11;100.00;100847.63;3593906;39;20124;-62
2021/04/11 00:57:02;;;;;;;8.35;4.80;;;;;;;2.08;100.00;100861.09;3592248;39;20346;-63
2021/04/11 00:59:28;;;;;;;6.35;4.00;;;;;;;2.08;100.00;100859.28;3593651;39;20439;-61
2021/04/11 01:01:54;;;;;;;6.50;4.38;;;;;;;2.04;100.00;100859.53;3593469;39;20390;-61
2021/04/11 01:04:21;;;;;;;6.60;4.13;;;;;;;2.14;100.00;100858.09;3594386;39;20064;-61
2021/04/11 01:06:56;;;;;;;4.50;3.50;;;;;;;2.15;100.00;100864.25;3592970;39;20059;-61
2021/04/11 01:09:27;;;;;;;6.63;3.75;;;;;;;2.08;100.00;100864.59;3592979;39;20039;-61
2021/04/11 01:11:57;;;;;;;5.55;4.45;;;;;;;2.12;100.00;100859.09;3592393;39;20102;-61
2021/04/11 01:14:25;;;;;;;5.93;3.92;;;;;;;2.06;100.00;100866.47;3591707;39;20389;-63
2021/04/11 01:16:51;;;;;;;7.05;4.50;;;;;;;2.13;100.00;100866.16;3590916;39;20353;-63
2021/04/11 01:19:23;;;;;;;7.75;4.07;;;;;;;2.09;100.00;100870.75;3591699;39;20376;-62
2021/04/11 01:21:57;;;;;;;6.07;4.20;;;;;;;2.03;100.00;100866.63;3594748;39;20055;-61
2021/04/11 01:24:31;;;;;;;5.13;3.47;;;;;;;2.05;100.00;100869.22;3595782;39;20047;-62
2021/04/11 01:26:57;;;;;;;4.82;3.70;;;;;;;2.15;100.00;100861.59;3594306;39;20189;-62
2021/04/11 01:29:23;;;;;;;4.68;3.38;;;;;;;2.23;100.00;100859.41;3593402;39;20060;-61
2021/04/11 01:31:50;;;;;;;5.50;3.58;;;;;;;2.13;100.00;100856.38;3595341;39;20394;-60
2021/04/11 01:34:16;;;;;;;3.70;2.85;;;;;;;2.21;100.00;100848.88;3595610;39;20066;-61
2021/04/11 01:36:48;;;;;;;3.80;2.80;;;;;;;2.18;100.00;100849.03;3595657;39;20040;-62
2021/04/11 01:39:18;;;;;;;3.97;3.20;;;;;;;2.11;100.00;100855.59;3593626;39;20059;-60
2021/04/11 01:41:46;;;;;;;6.53;3.20;;;;;;;2.12;100.00;100853.78;3596246;39;20075;-60
2021/04/11 01:44:15;;;;;;;4.25;2.85;;;;;;;2.14;100.00;100847.47;3593936;39;20480;-60
2021/04/11 01:46:41;;;;;;;4.10;3.25;;;;;;;2.13;100.00;100855.53;3594553;39;20066;-60
2021/04/11 01:49:07;;;;;;;4.15;2.83;;;;;;;2.12;100.00;100849.38;3594600;39;20056;-60
2021/04/11 01:51:36;;;;;;;5.22;3.28;;;;;;;2.20;100.00;100847.13;3595653;39;20487;-60
2021/04/11 01:54:07;;;;;;;5.07;3.40;;;;;;;2.14;100.00;100842.16;3594828;39;20044;-61
2021/04/11 01:56:33;;;;;;;3.83;2.95;;;;;;;2.09;100.00;100831.78;3594342;39;20048;-60
2021/04/11 01:59:00;;;;;;;7.72;3.30;;;;;;;2.14;100.00;100836.84;3594741;39;20064;-60
2021/04/11 02:01:30;;;;;;;4.53;3.13;;;;;;;2.10;100.00;100841.44;3594593;39;20141;-60
2021/04/11 02:03:58;;;;;;;5.45;3.20;;;;;;;2.08;100.00;100843.34;3595026;39;20074;-60
2021/04/11 02:06:25;;;;;;;5.93;3.30;;;;;;;2.14;100.00;100838.66;3592968;39;20048;-60
2021/04/11 02:08:56;;;;;;;3.88;2.88;;;;;;;2.19;100.00;100839.25;3593721;39;20044;-60
2021/04/11 02:11:23;;;;;;;3.85;2.67;;;;;;;2.16;100.00;100850.03;3595267;39;20429;-60
2021/04/11 02:13:49;;;;;;;5.60;3.28;;;;;;;2.08;100.00;100853.13;3594161;39;20437;-60
2021/04/11 02:16:22;;;;;;;6.10;3.05;;;;;;;2.09;100.00;100852.16;3593373;39;20060;-61
2021/04/11 02:18:48;;;;;;;5.90;3.05;;;;;;;2.07;100.00;100836.31;3593113;39;20056;-60
2021/04/11 02:21:17;;;;;;;7.30;2.60;;;;;;;2.09;100.00;100841.53;3594910;39;20040;-62
2021/04/11 02:23:44;;;;;;;4.47;2.90;;;;;;;2.15;100.00;100849.19;3593881;39;20062;-61
2021/04/11 02:26:11;;;;;;;4.40;2.40;;;;;;;2.12;100.00;100843.19;3595210;39;20083;-62
2021/04/11 02:28:38;;;;;;;4.15;2.75;;;;;;;2.12;100.00;100843.19;3592809;39;20132;-62
2021/04/11 02:34:02;;;;;;;3.92;2.80;;;;;;;2.12;100.00;100852.03;3594833;39;20059;-64
2021/04/11 02:36:34;;;;;;;3.88;2.70;;;;;;;2.23;100.00;100851.44;3595123;39;20044;-62
2021/04/11 02:39:04;;;;;;;3.58;2.60;;;;;;;2.18;100.00;100837.53;3593812;39;20148;-62
2021/04/11 02:41:30;;;;;;;6.65;2.90;;;;;;;2.20;100.00;100831.22;3594070;39;20271;-62
2021/04/11 02:43:56;;;;;;;3.97;2.70;;;;;;;2.24;100.00;100827.44;3594729;39;20051;-61
2021/04/11 02:46:24;;;;;;;4.85;2.97;;;;;;;2.20;100.00;100846.28;3594961;39;20044;-61
2021/04/11 02:48:53;;;;;;;5.18;3.33;;;;;;;2.21;100.00;100848.88;3594069;39;20139;-63
2021/04/11 02:51:22;;;;;;;4.78;3.10;;;;;;;2.19;100.00;100855.19;3595578;39;20067;-64
2021/04/11 02:53:49;;;;;;;6.63;3.22;;;;;;;2.24;100.00;100851.34;3594817;39;20062;-63
2021/04/11 02:56:16;;;;;;;5.32;2.90;;;;;;;2.29;100.00;100853.75;3594330;39;20417;-63
2021/04/11 02:58:42;;;;;;;5.65;3.25;;;;;;;2.27;100.00;100842.38;3593791;39;20040;-65
2021/04/11 03:01:12;;;;;;;8.18;3.60;;;;;;;2.29;100.00;100843.13;3593945;39;20106;-61
2021/04/11 03:03:38;;;;;;;6.82;2.92;;;;;;;2.31;100.00;100849.19;3594344;39;20055;-61
2021/04/11 03:06:11;;;;;;;4.70;3.20;;;;;;;2.33;100.00;100857.97;3594096;39;20068;-61
2021/04/11 03:08:40;;;;;;;6.05;3.35;;;;;;;2.33;100.00;100871.25;3594033;39;20033;-61
2021/04/11 03:11:15;;;;;;;4.45;3.05;;;;;;;2.34;100.00;100865.00;3595181;39;20056;-60
2021/04/11 03:13:43;;;;;;;3.70;3.30;;;;;;;2.49;100.00;100873.94;3594027;39;20074;-60
2021/04/11 03:16:09;;;;;;;7.65;4.13;;;;;;;2.45;100.00;100891.81;3592650;39;20048;-60
2021/04/11 03:18:36;;;;;;;4.93;3.63;;;;;;;2.43;100.00;100883.09;3594279;39;20123;-60
2021/04/11 03:21:05;;;;;;;7.85;4.00;;;;;;;2.51;100.00;100887.13;3594105;39;20052;-61
2021/04/11 03:23:32;;;;;;;8.43;4.33;;;;;;;2.49;100.00;100904.94;3594116;39;20046;-61
2021/04/11 03:26:04;;;;;;;7.68;3.83;;;;;;;2.45;100.00;100894.47;3594974;39;20048;-61
2021/04/11 03:28:35;;;;;;;6.43;4.07;;;;;;;2.50;100.00;100898.69;3593639;39;20040;-60
2021/04/11 03:31:07;;;;;;;5.75;4.47;;;;;;;2.56;100.00;100893.91;3593371;39;20060;-60
2021/04/11 03:33:38;;;;;;;7.57;4.45;;;;;;;2.60;100.00;100891.94;3593061;39;20141;-60
2021/04/11 03:36:06;;;;;;;7.13;4.38;;;;;;;2.59;100.00;100885.78;3593437;39;20116;-61
2021/04/11 03:38:33;;;;;;;6.40;3.80;;;;;;;2.70;100.00;100886.97;3593809;39;20055;-61
2021/04/11 03:41:01;;;;;;;8.15;3.95;;;;;;;2.59;100.00;100884.88;3596782;40;20412;-61
2021/04/11 03:43:40;;;;;;;6.50;4.00;;;;;;;2.55;100.00;100880.72;3612953;22;20056;-61
2021/04/11 03:46:12;;;;;;;10.48;3.90;;;;;;;2.64;100.00;100888.16;3580908;40;20052;-61
2021/04/11 03:48:44;;;;;;;7.38;4.07;;;;;;;2.64;100.00;100885.50;3583320;40;20067;-61
2021/04/11 03:51:15;;;;;;;5.07;3.67;;;;;;;2.59;100.00;100895.53;3583675;40;20048;-61
2021/04/11 03:53:45;;;;;;;6.28;4.00;;;;;;;2.56;100.00;100890.38;3583916;40;20062;-60
2021/04/11 03:56:16;;;;;;;6.95;3.75;;;;;;;2.55;100.00;100902.81;3584620;40;20049;-61
2021/04/11 03:58:45;;;;;;;5.88;4.28;;;;;;;2.56;100.00;100914.28;3582375;40;20076;-60
2021/04/11 04:01:16;;;;;;;4.03;3.50;;;;;;;2.53;100.00;100906.50;3583509;40;20129;-60
2021/04/11 04:03:43;;;;;;;5.38;3.83;;;;;;;2.51;100.00;100909.22;3583938;40;20263;-60
2021/04/11 04:06:18;;;;;;;6.20;3.30;;;;;;;2.59;100.00;100912.34;3584063;40;20137;-61
2021/04/11 04:08:44;;;;;;;5.80;3.38;;;;;;;2.59;100.00;100906.16;3582493;40;20040;-60
2021/04/11 04:11:23;;;;;;;6.90;3.88;;;;;;;2.58;100.00;100915.09;3584024;40;20059;-61
2021/04/11 04:14:05;;;;;;;5.07;3.67;;;;;;;2.66;100.00;100910.19;3583257;40;20046;-60
2021/04/11 04:16:44;;;;;;;7.68;4.32;;;;;;;2.54;100.00;100910.88;3582427;40;20055;-61
2021/04/11 04:19:22;;;;;;;6.13;3.25;;;;;;;2.56;100.00;100916.94;3583037;40;20056;-61
2021/04/11 04:22:03;;;;;;;9.07;3.55;;;;;;;2.62;100.00;100916.59;3584838;40;20044;-60
2021/04/11 04:24:40;;;;;;;4.15;3.30;;;;;;;2.53;100.00;100917.13;3583437;40;20503;-61
2021/04/11 04:27:22;;;;;;;4.60;3.28;;;;;;;2.57;100.00;100931.97;3583394;40;20054;-61
2021/04/11 04:30:02;;;;;;;4.97;3.15;;;;;;;2.62;100.00;100935.22;3583814;40;20407;-60
2021/04/11 04:32:44;;;;;;;5.30;2.85;;;;;;;2.58;100.00;100939.00;3584043;40;20025;-61
2021/04/11 04:35:20;;;;;;;5.38;2.88;;;;;;;2.52;100.00;100947.28;3582811;40;20178;-61
2021/04/11 04:38:01;;;;;;;5.72;3.13;;;;;;;2.57;100.00;100939.94;3584100;40;20060;-60
2021/04/11 04:40:41;;;;;;;5.05;2.38;;;;;;;2.59;100.00;100946.00;3581592;40;20060;-61
2021/04/11 04:43:16;;;;;;;2.53;2.15;;;;;;;2.58;100.00;100931.88;3583655;40;20041;-61
2021/04/11 04:45:47;;;;;;;4.95;2.35;;;;;;;2.56;100.00;100922.25;3584008;40;20068;-61
2021/04/11 04:48:21;;;;;;;4.35;2.72;;;;;;;2.56;100.00;100927.56;3582616;40;20064;-61
2021/04/11 04:50:51;;;;;;;3.25;2.35;;;;;;;2.52;100.00;100933.97;3583258;40;20040;-61
2021/04/11 04:53:23;;;;;;;3.95;2.70;;;;;;;2.57;100.00;100966.50;3582903;40;20048;-61
2021/04/11 04:55:52;;;;;;;6.15;2.25;;;;;;;2.49;100.00;100953.63;3585263;40;20041;-61
2021/04/11 04:58:24;;;;;;;4.65;2.70;;;;;;;2.55;100.00;100958.59;3585489;40;20060;-61
2021/04/11 05:00:54;;;;;;;4.45;2.85;;;;;;;2.63;100.00;100960.84;3583084;40;20055;-61
2021/04/11 05:03:24;;;;;;;5.18;3.47;;;;;;;2.60;100.00;100956.56;3584521;40;20048;-61
2021/04/11 05:05:58;;;;;;;4.07;2.60;;;;;;;2.64;100.00;100957.25;3586043;40;20032;-61
2021/04/11 05:08:29;;;;;;;6.10;2.75;;;;;;;2.66;100.00;100950.06;3584515;40;20044;-61
2021/04/11 05:11:03;;;;;;;7.00;3.03;;;;;;;2.67;100.00;100957.09;3585007;40;20052;-61
2021/04/11 05:13:34;;;;;;;4.45;2.70;;;;;;;2.65;100.00;100958.09;3586388;40;20048;-61
2021/04/11 05:16:07;;;;;;;5.53;2.90;;;;;;;2.63;100.00;100961.72;3583988;40;20053;-61
2021/04/11 05:18:38;;;;;;;8.40;3.72;;;;;;;2.64;100.00;100967.88;3582891;40;20263;-61
2021/04/11 05:21:10;;;;;;;5.40;3.28;;;;;;;2.72;100.00;100976.28;3584954;40;20053;-61
2021/04/11 05:23:43;;;;;;;3.85;2.85;;;;;;;2.75;100.00;100986.78;3584725;40;20304;-61
2021/04/11 05:26:13;;;;;;;6.00;3.47;;;;;;;2.73;100.00;100999.28;3585334;40;20049;-61
2021/04/11 05:28:45;;;;;;;7.35;3.25;;;;;;;2.71;100.00;101006.50;3584330;40;20041;-61
2021/04/11 05:31:15;;;;;;;8.60;3.40;;;;;;;2.79;100.00;100998.94;3584514;40;20063;-61
2021/04/11 05:33:42;;;;;;;5.93;3.33;;;;;;;2.74;100.00;100994.81;3585332;40;20441;-60
2021/04/11 05:36:20;;;;;;;6.35;3.75;;;;;;;2.79;100.00;100988.31;3584445;40;20101;-61
2021/04/11 05:38:57;;;;;;;6.60;3.55;;;;;;;2.77;100.00;100990.22;3583322;40;20044;-61
2021/04/11 05:41:28;;;;;;;5.68;3.55;;;;;;;2.89;100.00;101004.63;3586116;40;20043;-61
2021/04/11 05:44:01;;;;;;;5.03;3.30;;;;;;;2.93;100.00;100994.69;3583809;40;20041;-61
2021/04/11 05:46:32;;;;;;;5.18;3.47;;;;;;;3.02;100.00;100994.19;3585497;40;20572;-61
2021/04/11 05:49:02;;;;;;;6.97;3.50;;;;;;;2.98;100.00;101004.13;3583309;40;20045;-61
2021/04/11 05:51:31;;;;;;;;;;;;;;;2.98;100.00;100997.97;3584284;40;20052;-62
2021/04/11 05:54:01;;;;;;;9.85;3.45;;;;;;;2.98;100.00;101020.06;3583828;40;20017;-62
2021/04/11 05:56:32;;;;;;;4.85;3.15;;;;;;;3.00;100.00;101021.81;3585928;40;20397;-62
2021/04/11 05:59:04;;;;;;;6.90;3.42;;;;;;;3.01;100.00;101024.38;3583168;40;20429;-62
2021/04/11 06:01:38;;;;;;;4.20;2.78;;;;;;;3.08;100.00;101025.75;3583442;40;20036;-62
2021/04/11 06:04:09;;;;;;;6.43;3.35;;;;;;;3.00;100.00;101019.16;3580722;40;20052;-62
2021/04/11 06:06:44;;;;;;;4.68;3.63;;;;;;;3.00;100.00;101027.97;3583088;40;20387;-63
2021/04/11 06:09:18;;;;;;;6.63;3.40;;;;;;;2.98;100.00;101036.03;3582244;40;20048;-64
2021/04/11 06:11:50;;;;;;;5.82;2.95;;;;;;;3.00;100.00;101048.38;3585269;40;20033;-62
2021/04/11 06:14:20;;;;;;;5.05;2.45;;;;;;;2.92;100.00;101051.47;3584271;40;20048;-64
2021/04/11 06:16:48;;;;;;;4.05;2.72;;;;;;;2.93;100.00;101063.81;3584309;40;20053;-65
2021/04/11 06:19:14;;;;;;;5.75;2.80;;;;;;;3.01;100.00;101066.06;3582436;40;20052;-63
2021/04/11 06:21:51;;;;;;;5.55;2.30;;;;;;;3.01;100.00;101068.72;3585708;40;20044;-63
2021/04/11 06:24:31;;;;;;;6.38;2.78;;;;;;;3.04;100.00;101082.72;3583159;40;20096;-61
2021/04/11 06:27:07;;;;;;;3.08;2.40;;;;;;;3.16;100.00;101089.16;3585114;40;20048;-64
2021/04/11 06:29:43;;;;;;;3.00;2.00;;;;;;;2.99;100.00;101076.78;3584284;40;20054;-65
2021/04/11 06:32:12;;;;;;;3.17;2.33;;;;;;;3.03;100.00;101069.50;3583057;40;20063;-62
2021/04/11 06:34:43;;;;;;;3.53;2.20;;;;;;;3.16;100.00;101075.88;3584590;40;20137;-62
2021/04/11 06:37:15;;;;;;;4.13;2.58;;;;;;;3.19;100.00;101077.50;3584474;40;20120;-61
2021/04/11 06:39:45;;;;;;;3.78;2.30;;;;;;;3.09;100.00;101083.34;3584680;40;20037;-64
2021/04/11 06:42:47;;;;;;;4.97;2.33;;;;;;;3.06;100.00;101085.28;3584210;40;20043;-61
2021/04/11 06:45:22;;;;;;;5.68;1.90;;;;;;;3.01;100.00;101084.69;3582498;40;20035;-61
2021/04/11 06:48:16;;;;;;;7.22;1.80;;;;;;;3.17;100.00;101098.03;3584219;40;20051;-64
2021/04/11 06:51:18;;;;;;;3.95;2.22;;;;;;;3.18;100.00;101100.59;3583080;40;20381;-64
2021/04/11 06:54:29;;;;;;;4.20;1.92;;;;;;;3.12;100.00;101112.44;3583972;40;20446;-64
2021/04/11 06:57:09;;;;;;;2.35;1.80;;;;;;;3.14;100.00;101109.69;3583311;40;20040;-64
2021/04/11 06:59:53;;;;;;;4.82;2.08;;;;;;;3.14;100.00;101097.22;3643158;22;20181;-64
2021/04/11 07:02:53;;;;;;;3.75;2.00;;;;;;;3.13;100.00;101102.63;3589360;39;20051;-64
2021/04/11 07:05:39;;;;;;;8.52;2.33;;;;;;;3.23;100.00;101109.19;3591633;39;20044;-64
2021/04/11 07:08:38;;;;;;;2.58;1.73;;;;;;;3.22;100.00;101112.78;3593597;39;20129;-65
2021/04/11 07:11:23;;;;;;;;;;;;;;;3.29;100.00;101108.84;3589316;39;20048;-62
2021/04/11 07:14:21;;;;;;;2.53;1.50;;;;;;;3.35;100.00;101110.31;3594653;39;20017;-65
2021/04/11 07:17:31;;;;;;;6.28;1.95;;;;;;;3.25;100.00;101096.63;3592024;39;20044;-62
2021/04/11 07:20:35;;;;;;;4.18;1.60;;;;;;;3.25;100.00;101101.13;3592980;39;20038;-65
2021/04/11 07:23:32;;;;;;;4.63;1.80;;;;;;;3.26;100.00;101098.38;3594441;39;20359;-63
2021/04/11 07:26:18;;;;;;;5.65;1.90;;;;;;;3.33;100.00;101112.22;3594802;40;20051;-65
2021/04/11 07:28:55;;;;;;;5.10;1.85;;;;;;;3.38;100.00;101107.47;3593301;39;20287;-64
2021/04/11 07:31:39;;;;;;;5.30;1.88;;;;;;;3.64;100.00;101113.19;3594289;39;20056;-64
2021/04/11 07:34:33;;;;;;;2.72;1.80;;;;;;;3.76;100.00;101117.81;3595220;39;20048;-64
2021/04/11 07:37:12;;;;;;;5.93;2.17;;;;;;;3.95;100.00;101109.66;3595134;39;20128;-66
2021/04/11 07:39:44;;;;;;;;;;;;;;;3.79;100.00;101125.63;3593965;39;20132;-61
2021/04/11 07:42:37;;;;;;;6.88;2.05;;;;;;;3.98;100.00;101136.09;3594234;39;19952;-65
2021/04/11 07:45:23;;;;;;;2.88;1.55;;;;;;;3.93;100.00;101139.97;3584614;39;20048;-63
2021/04/11 07:48:00;;;;;;;5.93;1.33;;;;;;;3.98;100.00;101137.94;3593738;39;20036;-63
2021/04/11 07:50:39;;;;;;;4.97;1.77;;;;;;;3.86;100.00;101145.66;3592502;39;20036;-63
2021/04/11 07:53:39;;;;;;;6.07;1.92;;;;;;;3.81;100.00;101144.19;3589849;39;20036;-63
2021/04/11 07:56:14;;;;;;;2.70;1.40;;;;;;;3.86;100.00;101153.63;3594575;39;20332;-65
2021/04/11 07:59:15;;;;;;;4.20;1.80;;;;;;;3.67;100.00;101160.94;3592526;39;20322;-63
2021/04/11 08:02:14;;;;;;;4.38;1.80;;;;;;;3.72;100.00;101164.19;3586796;39;20044;-63
2021/04/11 08:05:02;;;;;;;6.68;2.03;;;;;;;3.74;100.00;101161.44;3594244;39;20099;-63
2021/04/11 08:07:42;;;;;;;6.07;1.80;;;;;;;3.61;100.00;101158.63;3593991;39;20079;-63
2021/04/11 08:10:22;;;;;;;7.88;1.90;;;;;;;3.62;100.00;101165.63;3593207;39;20058;-63
2021/04/11 08:13:05;;;;;;;;;;;;;;;3.64;100.00;101172.59;3594991;39;20428;-63
2021/04/11 08:15:41;;;;;;;9.38;2.80;;;;;;;3.57;100.00;101165.88;3595856;40;20201;-63
2021/04/11 08:18:25;;;;;;;7.85;3.33;;;;;;;3.73;100.00;101184.56;3593876;39;20040;-63
2021/04/11 08:21:19;;;;;;;6.28;2.55;;;;;;;3.83;100.00;101172.44;3593382;39;20056;-63
2021/04/11 08:24:31;;;;;;;6.07;2.45;;;;;;;3.93;100.00;101182.56;3592074;39;20170;-63
2021/04/11 08:27:46;;;;;;;5.78;2.42;;;;;;;3.81;100.00;101190.31;3592868;39;20381;-62
2021/04/11 08:33:54;;;;;;;10.07;2.22;;;;;;;4.00;100.00;101205.25;3541106;40;20102;-62
2021/04/11 08:36:50;;;;;;;2.92;1.67;;;;;;;3.75;100.00;101206.59;3541434;40;20050;-61
2021/04/11 08:39:31;;;;;;;4.55;1.92;;;;;;;3.61;100.00;101217.16;3541380;40;20062;-62
2021/04/11 08:42:09;;;;;;;3.03;1.65;;;;;;;3.48;100.00;101220.47;3542326;40;20128;-62
2021/04/11 08:44:52;;;;;;;2.63;1.55;;;;;;;3.58;100.00;101217.31;3542224;40;20031;-61
2021/04/11 08:47:30;;;;;;;6.35;1.52;;;;;;;3.62;100.00;101221.53;3540688;40;20402;-61
2021/04/11 08:49:58;;;;;;;2.42;1.42;;;;;;;3.33;100.00;101215.97;3543494;40;20164;-62
2021/04/11 08:52:35;;;;;;;2.60;1.58;;;;;;;3.33;100.00;101219.47;3543772;40;20042;-62
2021/04/11 08:55:10;;;;;;;5.05;1.60;;;;;;;3.56;100.00;101216.53;3542455;40;20106;-62
2021/04/11 09:01:18;;;;;;;4.97;2.20;;;;;;;3.69;100.00;101222.91;3534684;40;20061;-62
2021/04/11 09:03:57;;;;;;;4.10;2.28;;;;;;;3.74;100.00;101225.31;3535301;40;20141;-62
2021/04/11 09:09:55;;;;;;;3.22;1.45;;;;;;;3.88;100.00;101237.91;3534783;40;20062;-61
2021/04/11 09:12:35;;;;;;;7.63;1.73;;;;;;;3.89;100.00;101244.94;3536324;40;20061;-63
2021/04/11 09:15:12;;;;;;;7.50;1.98;;;;;;;3.89;100.00;101245.81;3541155;40;20046;-62
2021/04/11 09:18:07;;;;;;;4.85;1.80;;;;;;;3.90;100.00;101249.31;3542648;40;20041;-62
2021/04/11 09:20:38;;;;;;;8.13;2.15;;;;;;;3.84;100.00;101259.38;3540498;40;20050;-63
2021/04/11 09:23:18;;;;;;;3.55;1.63;;;;;;;3.90;100.00;101271.50;3538363;40;20060;-63
2021/04/11 09:25:53;;;;;;;5.97;1.75;;;;;;;4.02;100.00;101267.31;3540600;40;20050;-61
2021/04/11 09:28:47;;;;;;;5.18;1.67;;;;;;;3.87;100.00;101274.31;3542072;40;20137;-63
2021/04/11 09:31:33;;;;;;;4.28;1.40;;;;;;;3.90;100.00;101268.84;3541086;40;20285;-63
2021/04/11 09:34:15;;;;;;;6.82;1.80;;;;;;;4.02;100.00;101277.97;3551847;40;20545;-64
2021/04/11 09:36:50;;;;;;;3.85;1.60;;;;;;;3.99;100.00;101286.09;3552655;40;20058;-64
2021/04/11 09:39:47;;;;;;;6.55;1.70;;;;;;;4.02;100.00;101288.63;3551135;40;20064;-66
2021/04/11 09:42:39;;;;;;;2.90;1.60;;;;;;;4.12;100.00;101289.84;3550180;40;20151;-63
2021/04/11 09:45:20;;;;;;;3.67;1.50;;;;;;;4.28;100.00;101291.66;3551337;40;20053;-65
2021/04/11 09:48:00;;;;;;;4.95;1.85;;;;;;;4.49;100.00;101298.47;3552219;40;20059;-62
2021/04/11 09:50:38;;;;;;;3.45;1.70;;;;;;;4.79;100.00;101300.31;3551451;40;20057;-64
2021/04/11 09:53:36;;;;;;;5.30;1.90;;;;;;;4.83;100.00;101295.66;3551569;40;20046;-62
2021/04/11 09:56:13;;;;;;;5.13;1.52;;;;;;;4.72;100.00;101291.81;3551288;40;20050;-61
2021/04/11 09:59:02;;;;;;;7.22;1.75;;;;;;;4.81;100.00;101293.09;3551995;40;20351;-62
2021/04/11 10:01:39;;;;;;;4.72;1.67;;;;;;;4.86;100.00;101299.03;3552430;40;20031;-62
2021/04/11 10:04:16;;;;;;;8.45;1.38;;;;;;;4.81;100.00;101298.41;3551623;40;20057;-65
2021/04/11 10:06:55;;;;;;;3.75;1.33;;;;;;;4.80;100.00;101296.72;3552143;40;20290;-64
2021/04/11 10:09:38;;;;;;;6.57;1.63;;;;;;;4.93;100.00;101302.19;3551515;40;20046;-63
2021/04/11 10:12:19;;;;;;;4.25;1.27;;;;;;;5.19;100.00;101306.00;3551663;40;20044;-62
2021/04/11 10:14:56;;;;;;;5.15;1.83;;;;;;;5.44;100.00;101305.41;3551398;40;20433;-62
2021/04/11 10:17:37;;;;;;;4.25;1.60;;;;;;;5.62;100.00;101294.56;3552513;40;20049;-63
2021/04/11 10:20:13;;;;;;;4.90;1.52;;;;;;;5.41;100.00;101307.41;3551335;40;20052;-63
2021/04/11 10:22:44;;;;;;;4.80;2.05;;;;;;;5.87;100.00;101298.41;3551225;40;20070;-63
2021/04/11 10:25:24;;;;;;;3.53;1.70;;;;;;;5.99;100.00;101307.50;3551649;40;20042;-65
2021/04/11 10:27:58;;;;;;;4.00;1.60;;;;;;;5.88;100.00;101314.34;3551993;40;20056;-64
2021/04/11 10:30:25;;;;;;;4.93;1.40;;;;;;;5.60;100.00;101300.00;3551456;40;20057;-62
2021/04/11 10:32:59;;;;;;;5.35;1.48;;;;;;;5.49;100.00;101315.84;3552454;40;20494;-64
2021/04/11 10:35:29;;;;;;;3.25;1.33;;;;;;;5.65;100.00;101309.56;3551462;40;20095;-63
2021/04/11 10:37:56;;;;;;;;;;;;;;;5.60;100.00;101318.69;3553121;40;20062;-63
2021/04/11 10:40:38;;;;;;;4.13;1.30;;;;;;;5.45;100.00;101319.63;3549120;40;19968;-63
2021/04/11 10:43:15;;;;;;;2.20;1.15;;;;;;;5.38;100.00;101326.28;3551763;40;20167;-63
2021/04/11 10:45:46;;;;;;;4.35;1.42;;;;;;;5.52;100.00;101337.00;3552370;40;20050;-64
2021/04/11 10:48:39;;;;;;;5.18;1.23;;;;;;;5.53;100.00;101333.38;3551974;40;20434;-63
2021/04/11 10:51:31;;;;;;;3.90;1.88;;;;;;;6.00;100.00;101323.44;3547450;40;20069;-65
2021/04/11 10:54:12;;;;;;;5.43;1.52;;;;;;;5.97;100.00;101332.50;3547705;40;20323;-64
2021/04/11 10:56:45;;;;;;;3.55;1.20;;;;;;;5.84;100.00;101333.34;3551653;40;20054;-64
2021/04/11 10:59:31;;;;;;;4.43;1.35;;;;;;;5.85;100.00;101343.91;3551330;40;20063;-63
2021/04/11 11:02:32;;;;;;;5.72;1.50;;;;;;;5.99;100.00;101334.22;3552229;40;20066;-65
2021/04/11 11:05:26;;;;;;;7.00;1.58;;;;;;;5.95;100.00;101345.06;3551222;40;20087;-64
2021/04/11 11:08:21;;;;;;;3.95;1.55;;;;;;;6.02;100.00;101347.41;3552392;40;20383;-63
2021/04/11 11:11:00;;;;;;;4.22;1.40;;;;;;;6.25;100.00;101352.16;3551268;40;20053;-63
2021/04/11 11:13:38;;;;;;;4.45;1.50;;;;;;;6.44;100.00;101351.03;3551586;40;20057;-64
2021/04/11 11:16:14;;;;;;;4.47;1.10;;;;;;;7.04;100.00;101354.31;3551486;40;20083;-64
2021/04/11 11:18:58;;;;;;;3.35;1.17;;;;;;;7.05;100.00;101364.06;3551373;40;20038;-62
2021/04/11 11:21:43;;;;;;;2.00;1.17;;;;;;;6.92;100.00;101372.91;3551416;40;20046;-63
2021/04/11 11:24:22;;;;;;;3.35;1.08;;;;;;;6.51;100.00;101378.22;3550774;40;20646;-63
2021/04/11 11:27:04;;;;;;;;;;;;;;;6.47;100.00;101377.56;3551926;40;20069;-63
2021/04/11 11:29:53;;;;;;;4.28;1.00;;;;;;;6.42;100.00;101385.00;3551280;40;20013;-65
2021/04/11 11:32:26;;;;;;;2.13;1.02;;;;;;;6.46;100.00;101383.88;3546684;40;20330;-63
2021/04/11 11:34:59;;;;;;;4.53;1.23;;;;;;;6.22;100.00;101389.78;3551928;40;20415;-63
2021/04/11 11:37:41;;;;;;;4.55;1.23;;;;;;;6.40;100.00;101382.44;3550424;40;20040;-63
2021/04/11 11:40:16;;;;;;;3.42;1.30;;;;;;;6.76;100.00;101388.25;3551656;40;20042;-65
2021/04/11 11:42:55;;;;;;;3.63;1.13;;;;;;;6.37;100.00;101395.16;3552157;40;20093;-63
2021/04/11 11:45:29;;;;;;;3.28;1.15;;;;;;;6.20;100.00;101413.09;3551502;40;20077;-62
2021/04/11 11:48:12;;;;;;;3.35;1.30;;;;;;;5.96;100.00;101412.72;3551335;40;20042;-62
2021/04/11 11:50:45;;;;;;;8.30;4.07;;;;;;;6.15;100.00;101415.16;3551439;40;20057;-63
2021/04/11 11:53:19;;;;;;;3.47;1.70;;;;;;;6.08;100.00;101398.66;3551310;40;20324;-63
2021/04/11 11:56:02;;;;;;;2.45;1.17;;;;;;;6.38;100.00;101410.25;3551502;40;20039;-63
2021/04/11 11:58:35;;;;;;;3.63;1.20;;;;;;;6.45;100.00;101422.28;3551086;40;20057;-64
2021/04/11 12:01:05;;;;;;;2.20;0.93;;;;;;;6.67;100.00;101419.13;3552198;40;20052;-64
2021/04/11 12:03:34;;;;;;;3.65;1.13;;;;;;;7.25;100.00;101417.16;3550815;40;20042;-64
2021/04/11 12:06:06;;;;;;;6.22;1.13;;;;;;;7.41;100.00;101413.47;3550808;40;20385;-64
2021/04/11 12:08:45;;;;;;;5.18;1.77;;;;;;;7.44;100.00;101410.59;3550435;40;20042;-64
2021/04/11 12:11:17;;;;;;;4.28;1.25;;;;;;;7.91;100.00;101409.19;3550497;40;20142;-64
2021/04/11 12:13:53;;;;;;;2.53;0.93;;;;;;;7.72;100.00;101417.63;3551225;40;20145;-64
2021/04/11 12:16:25;;;;;;;3.08;1.30;;;;;;;7.66;100.00;101426.94;3551737;40;20426;-64
2021/04/11 12:18:57;;;;;;;4.03;1.40;;;;;;;8.25;100.00;101429.16;3550699;40;20442;-64